sensor_id;sensor_type;location;lat;lon;timestamp;P1;durP1;ratioP1;P2;durP2;ratioP2
32824;SDS011;51060;42.640;24.356;2023-06-14T00:00:20;11.52;;;10.32;;
32824;SDS011;51060;42.640;24.356;2023-06-14T00:02:46;11.48;;;10.27;;
32824;SDS011;51060;42.640;24.356;2023-06-14T00:05:12;12.30;;;10.70;;
32824;SDS011;51060;42.640;24.356;2023-06-14T00:07:38;12.65;;;11.35;;
32824;SDS011;51060;42.640;24.356;2023-06-14T00:10:07;14.25;;;11.10;;
32824;SDS011;51060;42.640;24.356;2023-06-14T00:12:33;11.93;;;10.68;;
32824;SDS011;51060;42.640;24.356;2023-06-14T00:15:00;13.93;;;11.63;;
32824;SDS011;51060;42.640;24.356;2023-06-14T00:17:28;13.20;;;11.13;;
32824;SDS011;51060;42.640;24.356;2023-06-14T00:19:57;10.50;;;9.10;;
32824;SDS011;51060;42.640;24.356;2023-06-14T00:22:24;10.40;;;9.27;;
32824;SDS011;51060;42.640;24.356;2023-06-14T00:24:52;11.02;;;9.85;;
32824;SDS011;51060;42.640;24.356;2023-06-14T00:27:18;10.32;;;9.20;;
32824;SDS011;51060;42.640;24.356;2023-06-14T00:29:44;11.52;;;10.32;;
32824;SDS011;51060;42.640;24.356;2023-06-14T00:32:09;14.00;;;10.07;;
32824;SDS011;51060;42.640;24.356;2023-06-14T00:34:35;11.63;;;10.52;;
32824;SDS011;51060;42.640;24.356;2023-06-14T00:37:00;12.30;;;10.63;;
32824;SDS011;51060;42.640;24.356;2023-06-14T00:39:26;11.38;;;10.10;;
32824;SDS011;51060;42.640;24.356;2023-06-14T00:41:52;11.32;;;10.02;;
32824;SDS011;51060;42.640;24.356;2023-06-14T00:44:18;14.10;;;10.35;;
32824;SDS011;51060;42.640;24.356;2023-06-14T00:46:46;12.30;;;10.90;;
32824;SDS011;51060;42.640;24.356;2023-06-14T00:49:12;10.50;;;9.50;;
32824;SDS011;51060;42.640;24.356;2023-06-14T00:51:40;11.60;;;10.30;;
32824;SDS011;51060;42.640;24.356;2023-06-14T00:54:09;10.73;;;9.63;;
32824;SDS011;51060;42.640;24.356;2023-06-14T00:56:38;10.63;;;9.45;;
32824;SDS011;51060;42.640;24.356;2023-06-14T00:59:03;13.75;;;10.95;;
32824;SDS011;51060;42.640;24.356;2023-06-14T01:01:30;11.80;;;10.60;;
32824;SDS011;51060;42.640;24.356;2023-06-14T01:03:59;12.07;;;10.88;;
32824;SDS011;51060;42.640;24.356;2023-06-14T01:09:03;12.15;;;10.02;;
32824;SDS011;51060;42.640;24.356;2023-06-14T01:12:00;12.35;;;11.13;;
32824;SDS011;51060;42.640;24.356;2023-06-14T01:14:34;11.38;;;10.18;;
32824;SDS011;51060;42.640;24.356;2023-06-14T01:17:00;11.93;;;10.68;;
32824;SDS011;51060;42.640;24.356;2023-06-14T01:19:27;13.93;;;12.10;;
32824;SDS011;51060;42.640;24.356;2023-06-14T01:21:53;13.40;;;11.98;;
32824;SDS011;51060;42.640;24.356;2023-06-14T01:24:20;14.30;;;12.77;;
32824;SDS011;51060;42.640;24.356;2023-06-14T01:26:52;14.63;;;13.15;;
32824;SDS011;51060;42.640;24.356;2023-06-14T01:29:21;14.98;;;13.38;;
32824;SDS011;51060;42.640;24.356;2023-06-14T01:31:47;17.38;;;13.98;;
32824;SDS011;51060;42.640;24.356;2023-06-14T01:34:14;14.32;;;12.52;;
32824;SDS011;51060;42.640;24.356;2023-06-14T01:36:40;13.00;;;10.25;;
32824;SDS011;51060;42.640;24.356;2023-06-14T01:39:07;7.95;;;7.10;;
32824;SDS011;51060;42.640;24.356;2023-06-14T01:41:33;8.45;;;7.57;;
32824;SDS011;51060;42.640;24.356;2023-06-14T01:43:59;7.57;;;6.88;;
32824;SDS011;51060;42.640;24.356;2023-06-14T01:46:27;9.02;;;8.23;;
32824;SDS011;51060;42.640;24.356;2023-06-14T01:48:53;9.50;;;8.63;;
32824;SDS011;51060;42.640;24.356;2023-06-14T01:51:18;9.02;;;8.13;;
32824;SDS011;51060;42.640;24.356;2023-06-14T01:53:44;9.45;;;8.52;;
32824;SDS011;51060;42.640;24.356;2023-06-14T01:56:10;9.48;;;8.52;;
32824;SDS011;51060;42.640;24.356;2023-06-14T01:58:36;8.82;;;8.02;;
32824;SDS011;51060;42.640;24.356;2023-06-14T02:01:01;9.07;;;8.18;;
32824;SDS011;51060;42.640;24.356;2023-06-14T02:03:27;9.85;;;8.85;;
32824;SDS011;51060;42.640;24.356;2023-06-14T02:05:53;10.82;;;9.73;;
32824;SDS011;51060;42.640;24.356;2023-06-14T02:08:19;11.10;;;10.02;;
32824;SDS011;51060;42.640;24.356;2023-06-14T02:10:45;11.85;;;10.75;;
32824;SDS011;51060;42.640;24.356;2023-06-14T02:13:10;12.43;;;11.20;;
32824;SDS011;51060;42.640;24.356;2023-06-14T02:15:36;12.15;;;11.02;;
32824;SDS011;51060;42.640;24.356;2023-06-14T02:18:02;11.40;;;10.25;;
32824;SDS011;51060;42.640;24.356;2023-06-14T02:20:28;12.65;;;11.35;;
32824;SDS011;51060;42.640;24.356;2023-06-14T02:22:54;11.20;;;10.20;;
32824;SDS011;51060;42.640;24.356;2023-06-14T02:25:20;12.15;;;10.95;;
32824;SDS011;51060;42.640;24.356;2023-06-14T02:27:45;10.90;;;9.82;;
32824;SDS011;51060;42.640;24.356;2023-06-14T02:30:11;10.20;;;9.23;;
32824;SDS011;51060;42.640;24.356;2023-06-14T02:32:37;10.48;;;9.40;;
32824;SDS011;51060;42.640;24.356;2023-06-14T02:35:03;10.32;;;9.32;;
32824;SDS011;51060;42.640;24.356;2023-06-14T02:37:29;9.70;;;8.75;;
32824;SDS011;51060;42.640;24.356;2023-06-14T02:39:55;10.10;;;9.20;;
32824;SDS011;51060;42.640;24.356;2023-06-14T02:42:21;10.95;;;10.05;;
32824;SDS011;51060;42.640;24.356;2023-06-14T02:44:46;12.07;;;10.98;;
32824;SDS011;51060;42.640;24.356;2023-06-14T02:47:16;11.85;;;10.75;;
32824;SDS011;51060;42.640;24.356;2023-06-14T02:49:45;11.95;;;10.80;;
32824;SDS011;51060;42.640;24.356;2023-06-14T02:52:14;11.90;;;10.80;;
32824;SDS011;51060;42.640;24.356;2023-06-14T02:54:40;10.93;;;9.82;;
32824;SDS011;51060;42.640;24.356;2023-06-14T02:57:06;11.80;;;10.70;;
32824;SDS011;51060;42.640;24.356;2023-06-14T02:59:33;11.65;;;10.45;;
32824;SDS011;51060;42.640;24.356;2023-06-14T03:01:59;12.80;;;11.50;;
32824;SDS011;51060;42.640;24.356;2023-06-14T03:04:25;13.23;;;12.00;;
32824;SDS011;51060;42.640;24.356;2023-06-14T03:06:51;14.25;;;12.82;;
32824;SDS011;51060;42.640;24.356;2023-06-14T03:09:19;13.40;;;12.20;;
32824;SDS011;51060;42.640;24.356;2023-06-14T03:11:45;14.10;;;12.80;;
32824;SDS011;51060;42.640;24.356;2023-06-14T03:14:11;14.07;;;12.68;;
32824;SDS011;51060;42.640;24.356;2023-06-14T03:16:38;14.95;;;13.50;;
32824;SDS011;51060;42.640;24.356;2023-06-14T03:19:04;14.43;;;13.02;;
32824;SDS011;51060;42.640;24.356;2023-06-14T03:21:30;14.90;;;13.50;;
32824;SDS011;51060;42.640;24.356;2023-06-14T03:23:55;16.58;;;14.98;;
32824;SDS011;51060;42.640;24.356;2023-06-14T03:26:21;16.85;;;15.05;;
32824;SDS011;51060;42.640;24.356;2023-06-14T03:28:47;17.58;;;15.70;;
32824;SDS011;51060;42.640;24.356;2023-06-14T03:31:16;18.88;;;16.88;;
32824;SDS011;51060;42.640;24.356;2023-06-14T03:33:41;16.52;;;14.82;;
32824;SDS011;51060;42.640;24.356;2023-06-14T03:36:07;17.60;;;15.60;;
32824;SDS011;51060;42.640;24.356;2023-06-14T03:38:33;17.83;;;16.02;;
32824;SDS011;51060;42.640;24.356;2023-06-14T03:40:59;18.15;;;16.35;;
32824;SDS011;51060;42.640;24.356;2023-06-14T03:43:25;19.20;;;17.25;;
32824;SDS011;51060;42.640;24.356;2023-06-14T03:45:50;19.25;;;17.25;;
32824;SDS011;51060;42.640;24.356;2023-06-14T03:48:16;20.73;;;18.52;;
32824;SDS011;51060;42.640;24.356;2023-06-14T03:50:41;23.52;;;19.33;;
32824;SDS011;51060;42.640;24.356;2023-06-14T03:53:08;22.08;;;19.77;;
32824;SDS011;51060;42.640;24.356;2023-06-14T03:55:33;22.35;;;20.00;;
32824;SDS011;51060;42.640;24.356;2023-06-14T03:58:00;23.08;;;20.00;;
32824;SDS011;51060;42.640;24.356;2023-06-14T04:00:25;22.17;;;19.75;;
32824;SDS011;51060;42.640;24.356;2023-06-14T04:02:51;22.50;;;20.23;;
32824;SDS011;51060;42.640;24.356;2023-06-14T04:05:18;20.25;;;17.98;;
32824;SDS011;51060;42.640;24.356;2023-06-14T04:07:44;19.10;;;17.20;;
32824;SDS011;51060;42.640;24.356;2023-06-14T04:10:11;19.95;;;17.88;;
32824;SDS011;51060;42.640;24.356;2023-06-14T04:12:37;19.25;;;17.20;;
32824;SDS011;51060;42.640;24.356;2023-06-14T04:15:03;19.63;;;17.55;;
32824;SDS011;51060;42.640;24.356;2023-06-14T04:17:31;22.77;;;19.75;;
32824;SDS011;51060;42.640;24.356;2023-06-14T04:19:58;22.88;;;20.48;;
32824;SDS011;51060;42.640;24.356;2023-06-14T04:22:25;24.20;;;21.60;;
32824;SDS011;51060;42.640;24.356;2023-06-14T04:24:56;24.33;;;21.83;;
32824;SDS011;51060;42.640;24.356;2023-06-14T04:27:25;21.60;;;19.20;;
32824;SDS011;51060;42.640;24.356;2023-06-14T04:29:52;23.83;;;21.33;;
32824;SDS011;51060;42.640;24.356;2023-06-14T04:32:23;27.60;;;22.63;;
32824;SDS011;51060;42.640;24.356;2023-06-14T04:34:54;23.52;;;21.05;;
32824;SDS011;51060;42.640;24.356;2023-06-14T04:37:21;27.55;;;23.38;;
32824;SDS011;51060;42.640;24.356;2023-06-14T04:39:47;26.67;;;23.13;;
32824;SDS011;51060;42.640;24.356;2023-06-14T04:42:16;24.75;;;21.63;;
32824;SDS011;51060;42.640;24.356;2023-06-14T04:44:45;23.75;;;21.05;;
32824;SDS011;51060;42.640;24.356;2023-06-14T04:47:15;23.83;;;21.33;;
32824;SDS011;51060;42.640;24.356;2023-06-14T04:49:41;22.20;;;19.75;;
32824;SDS011;51060;42.640;24.356;2023-06-14T04:52:06;20.80;;;18.70;;
32824;SDS011;51060;42.640;24.356;2023-06-14T04:54:32;20.80;;;18.70;;
32824;SDS011;51060;42.640;24.356;2023-06-14T04:56:59;21.70;;;19.35;;
32824;SDS011;51060;42.640;24.356;2023-06-14T04:59:25;23.88;;;21.48;;
32824;SDS011;51060;42.640;24.356;2023-06-14T05:01:51;24.33;;;21.50;;
32824;SDS011;51060;42.640;24.356;2023-06-14T05:04:18;24.15;;;21.55;;
32824;SDS011;51060;42.640;24.356;2023-06-14T05:06:44;23.98;;;21.50;;
32824;SDS011;51060;42.640;24.356;2023-06-14T05:09:13;22.73;;;20.33;;
32824;SDS011;51060;42.640;24.356;2023-06-14T05:11:40;24.50;;;21.70;;
32824;SDS011;51060;42.640;24.356;2023-06-14T05:14:07;22.27;;;19.98;;
32824;SDS011;51060;42.640;24.356;2023-06-14T05:16:33;23.65;;;21.15;;
32824;SDS011;51060;42.640;24.356;2023-06-14T05:18:59;21.38;;;19.00;;
32824;SDS011;51060;42.640;24.356;2023-06-14T05:21:24;19.70;;;17.70;;
32824;SDS011;51060;42.640;24.356;2023-06-14T05:23:50;16.92;;;15.18;;
32824;SDS011;51060;42.640;24.356;2023-06-14T05:26:16;16.05;;;14.40;;
32824;SDS011;51060;42.640;24.356;2023-06-14T05:28:42;17.20;;;15.38;;
32824;SDS011;51060;42.640;24.356;2023-06-14T05:31:07;18.20;;;16.25;;
32824;SDS011;51060;42.640;24.356;2023-06-14T05:33:36;18.77;;;15.73;;
32824;SDS011;51060;42.640;24.356;2023-06-14T05:36:01;17.73;;;15.82;;
32824;SDS011;51060;42.640;24.356;2023-06-14T05:38:27;16.10;;;14.32;;
32824;SDS011;51060;42.640;24.356;2023-06-14T05:40:56;16.90;;;15.10;;
32824;SDS011;51060;42.640;24.356;2023-06-14T05:43:21;16.25;;;14.13;;
32824;SDS011;51060;42.640;24.356;2023-06-14T05:45:47;15.55;;;13.95;;
32824;SDS011;51060;42.640;24.356;2023-06-14T05:48:12;13.93;;;12.43;;
32824;SDS011;51060;42.640;24.356;2023-06-14T05:50:38;12.80;;;11.60;;
32824;SDS011;51060;42.640;24.356;2023-06-14T05:53:03;14.38;;;11.38;;
32824;SDS011;51060;42.640;24.356;2023-06-14T05:55:29;12.32;;;11.02;;
32824;SDS011;51060;42.640;24.356;2023-06-14T05:57:54;12.35;;;11.05;;
32824;SDS011;51060;42.640;24.356;2023-06-14T06:00:20;13.63;;;11.50;;
32824;SDS011;51060;42.640;24.356;2023-06-14T06:02:46;16.95;;;13.70;;
32824;SDS011;51060;42.640;24.356;2023-06-14T06:05:12;13.68;;;12.27;;
32824;SDS011;51060;42.640;24.356;2023-06-14T06:07:38;32.20;;;22.08;;
32824;SDS011;51060;42.640;24.356;2023-06-14T06:10:10;43.85;;;33.03;;
32824;SDS011;51060;42.640;24.356;2023-06-14T06:12:36;35.45;;;30.98;;
32824;SDS011;51060;42.640;24.356;2023-06-14T06:15:02;26.40;;;23.77;;
32824;SDS011;51060;42.640;24.356;2023-06-14T06:17:28;18.40;;;16.13;;
32824;SDS011;51060;42.640;24.356;2023-06-14T06:19:54;17.58;;;13.07;;
32824;SDS011;51060;42.640;24.356;2023-06-14T06:22:20;17.40;;;15.60;;
32824;SDS011;51060;42.640;24.356;2023-06-14T06:24:45;15.63;;;13.90;;
32824;SDS011;51060;42.640;24.356;2023-06-14T06:27:12;16.05;;;13.43;;
32824;SDS011;51060;42.640;24.356;2023-06-14T06:29:38;15.25;;;12.40;;
32824;SDS011;51060;42.640;24.356;2023-06-14T06:32:03;13.05;;;11.63;;
32824;SDS011;51060;42.640;24.356;2023-06-14T06:34:29;15.93;;;10.95;;
32824;SDS011;51060;42.640;24.356;2023-06-14T06:36:55;12.07;;;10.80;;
32824;SDS011;51060;42.640;24.356;2023-06-14T06:39:20;10.90;;;9.90;;
32824;SDS011;51060;42.640;24.356;2023-06-14T06:41:46;11.60;;;10.40;;
32824;SDS011;51060;42.640;24.356;2023-06-14T06:44:12;12.50;;;9.90;;
32824;SDS011;51060;42.640;24.356;2023-06-14T06:46:38;11.65;;;10.43;;
32824;SDS011;51060;42.640;24.356;2023-06-14T06:49:06;12.85;;;10.70;;
32824;SDS011;51060;42.640;24.356;2023-06-14T06:51:32;11.65;;;10.02;;
32824;SDS011;51060;42.640;24.356;2023-06-14T06:53:58;12.13;;;10.50;;
32824;SDS011;51060;42.640;24.356;2023-06-14T06:56:23;12.82;;;11.45;;
32824;SDS011;51060;42.640;24.356;2023-06-14T06:58:49;11.52;;;10.23;;
32824;SDS011;51060;42.640;24.356;2023-06-14T07:01:16;11.65;;;10.48;;
32824;SDS011;51060;42.640;24.356;2023-06-14T07:03:42;11.80;;;10.55;;
32824;SDS011;51060;42.640;24.356;2023-06-14T07:06:08;11.70;;;9.93;;
32824;SDS011;51060;42.640;24.356;2023-06-14T07:08:34;11.32;;;10.23;;
32824;SDS011;51060;42.640;24.356;2023-06-14T07:10:59;11.52;;;10.40;;
32824;SDS011;51060;42.640;24.356;2023-06-14T07:13:25;10.82;;;9.73;;
32824;SDS011;51060;42.640;24.356;2023-06-14T07:15:54;10.65;;;9.57;;
32824;SDS011;51060;42.640;24.356;2023-06-14T07:18:20;10.93;;;9.80;;
32824;SDS011;51060;42.640;24.356;2023-06-14T07:20:46;11.82;;;10.60;;
32824;SDS011;51060;42.640;24.356;2023-06-14T07:23:12;12.38;;;11.18;;
32824;SDS011;51060;42.640;24.356;2023-06-14T07:25:38;11.18;;;10.07;;
32824;SDS011;51060;42.640;24.356;2023-06-14T07:28:03;11.77;;;10.57;;
32824;SDS011;51060;42.640;24.356;2023-06-14T07:30:29;13.55;;;11.38;;
32824;SDS011;51060;42.640;24.356;2023-06-14T07:32:55;16.33;;;14.63;;
32824;SDS011;51060;42.640;24.356;2023-06-14T07:35:21;11.82;;;10.68;;
32824;SDS011;51060;42.640;24.356;2023-06-14T07:37:46;12.95;;;11.65;;
32824;SDS011;51060;42.640;24.356;2023-06-14T07:40:12;11.85;;;10.65;;
32824;SDS011;51060;42.640;24.356;2023-06-14T07:42:38;12.63;;;11.32;;
32824;SDS011;51060;42.640;24.356;2023-06-14T07:45:04;13.07;;;11.77;;
32824;SDS011;51060;42.640;24.356;2023-06-14T07:47:31;13.98;;;12.68;;
32824;SDS011;51060;42.640;24.356;2023-06-14T07:49:57;13.85;;;12.38;;
32824;SDS011;51060;42.640;24.356;2023-06-14T07:52:22;14.25;;;12.77;;
32824;SDS011;51060;42.640;24.356;2023-06-14T07:54:48;14.65;;;13.15;;
32824;SDS011;51060;42.640;24.356;2023-06-14T07:57:14;13.00;;;11.60;;
32824;SDS011;51060;42.640;24.356;2023-06-14T07:59:39;14.82;;;12.32;;
32824;SDS011;51060;42.640;24.356;2023-06-14T08:02:05;13.65;;;12.27;;
32824;SDS011;51060;42.640;24.356;2023-06-14T08:04:31;13.93;;;12.52;;
32824;SDS011;51060;42.640;24.356;2023-06-14T08:06:57;13.38;;;11.98;;
32824;SDS011;51060;42.640;24.356;2023-06-14T08:09:23;14.45;;;12.98;;
32824;SDS011;51060;42.640;24.356;2023-06-14T08:11:50;12.90;;;11.25;;
32824;SDS011;51060;42.640;24.356;2023-06-14T08:14:16;14.23;;;12.80;;
32824;SDS011;51060;42.640;24.356;2023-06-14T08:16:42;16.00;;;14.30;;
32824;SDS011;51060;42.640;24.356;2023-06-14T08:19:07;15.40;;;13.90;;
32824;SDS011;51060;42.640;24.356;2023-06-14T08:21:33;16.55;;;14.85;;
32824;SDS011;51060;42.640;24.356;2023-06-14T08:24:01;19.35;;;17.33;;
32824;SDS011;51060;42.640;24.356;2023-06-14T08:26:27;30.08;;;26.70;;
32824;SDS011;51060;42.640;24.356;2023-06-14T08:28:54;43.33;;;38.40;;
32824;SDS011;51060;42.640;24.356;2023-06-14T08:31:20;22.70;;;20.52;;
32824;SDS011;51060;42.640;24.356;2023-06-14T08:33:46;15.70;;;14.18;;
32824;SDS011;51060;42.640;24.356;2023-06-14T08:36:11;18.02;;;16.13;;
32824;SDS011;51060;42.640;24.356;2023-06-14T08:38:39;19.27;;;17.48;;
32824;SDS011;51060;42.640;24.356;2023-06-14T08:41:05;16.02;;;14.32;;
32824;SDS011;51060;42.640;24.356;2023-06-14T08:43:33;15.52;;;13.93;;
32824;SDS011;51060;42.640;24.356;2023-06-14T08:46:00;14.93;;;13.07;;
32824;SDS011;51060;42.640;24.356;2023-06-14T08:48:28;16.70;;;15.10;;
32824;SDS011;51060;42.640;24.356;2023-06-14T08:50:54;16.23;;;14.50;;
32824;SDS011;51060;42.640;24.356;2023-06-14T08:53:27;14.88;;;13.23;;
32824;SDS011;51060;42.640;24.356;2023-06-14T08:55:54;16.40;;;14.70;;
32824;SDS011;51060;42.640;24.356;2023-06-14T08:58:20;17.98;;;15.25;;
32824;SDS011;51060;42.640;24.356;2023-06-14T09:00:49;16.50;;;13.02;;
32824;SDS011;51060;42.640;24.356;2023-06-14T09:03:17;15.75;;;13.68;;
32824;SDS011;51060;42.640;24.356;2023-06-14T09:05:45;14.63;;;13.18;;
32824;SDS011;51060;42.640;24.356;2023-06-14T09:08:12;15.93;;;14.18;;
32824;SDS011;51060;42.640;24.356;2023-06-14T09:10:37;16.95;;;14.70;;
32824;SDS011;51060;42.640;24.356;2023-06-14T09:13:06;21.60;;;17.85;;
32824;SDS011;51060;42.640;24.356;2023-06-14T09:15:32;20.90;;;17.27;;
32824;SDS011;51060;42.640;24.356;2023-06-14T09:17:59;19.08;;;16.38;;
32824;SDS011;51060;42.640;24.356;2023-06-14T09:20:26;13.57;;;12.27;;
32824;SDS011;51060;42.640;24.356;2023-06-14T09:22:55;14.05;;;12.15;;
32824;SDS011;51060;42.640;24.356;2023-06-14T09:25:20;12.13;;;10.90;;
32824;SDS011;51060;42.640;24.356;2023-06-14T09:27:47;13.73;;;12.27;;
32824;SDS011;51060;42.640;24.356;2023-06-14T09:30:13;13.38;;;12.07;;
32824;SDS011;51060;42.640;24.356;2023-06-14T09:32:39;11.65;;;10.45;;
32824;SDS011;51060;42.640;24.356;2023-06-14T09:35:06;11.95;;;10.68;;
32824;SDS011;51060;42.640;24.356;2023-06-14T09:37:32;12.88;;;11.57;;
32824;SDS011;51060;42.640;24.356;2023-06-14T09:39:58;14.82;;;13.40;;
32824;SDS011;51060;42.640;24.356;2023-06-14T09:42:24;13.68;;;12.38;;
32824;SDS011;51060;42.640;24.356;2023-06-14T09:44:54;13.85;;;12.10;;
32824;SDS011;51060;42.640;24.356;2023-06-14T09:47:20;14.00;;;12.70;;
32824;SDS011;51060;42.640;24.356;2023-06-14T09:49:47;12.80;;;11.55;;
32824;SDS011;51060;42.640;24.356;2023-06-14T09:52:17;11.77;;;10.68;;
32824;SDS011;51060;42.640;24.356;2023-06-14T09:54:44;14.07;;;12.68;;
32824;SDS011;51060;42.640;24.356;2023-06-14T09:57:14;12.77;;;11.50;;
32824;SDS011;51060;42.640;24.356;2023-06-14T09:59:47;13.18;;;11.40;;
32824;SDS011;51060;42.640;24.356;2023-06-14T10:02:26;12.32;;;11.13;;
32824;SDS011;51060;42.640;24.356;2023-06-14T10:05:07;11.50;;;10.40;;
32824;SDS011;51060;42.640;24.356;2023-06-14T10:07:40;12.35;;;11.10;;
32824;SDS011;51060;42.640;24.356;2023-06-14T10:10:08;12.38;;;11.07;;
32824;SDS011;51060;42.640;24.356;2023-06-14T10:12:34;13.02;;;11.75;;
32824;SDS011;51060;42.640;24.356;2023-06-14T10:14:59;12.50;;;11.25;;
32824;SDS011;51060;42.640;24.356;2023-06-14T10:17:49;13.13;;;11.60;;
32824;SDS011;51060;42.640;24.356;2023-06-14T10:20:24;12.02;;;10.85;;
32824;SDS011;51060;42.640;24.356;2023-06-14T10:23:17;11.73;;;10.52;;
32824;SDS011;51060;42.640;24.356;2023-06-14T10:25:43;11.57;;;10.48;;
32824;SDS011;51060;42.640;24.356;2023-06-14T10:30:37;11.05;;;9.88;;
32824;SDS011;51060;42.640;24.356;2023-06-14T10:33:03;12.25;;;11.05;;
32824;SDS011;51060;42.640;24.356;2023-06-14T10:35:33;12.73;;;11.43;;
32824;SDS011;51060;42.640;24.356;2023-06-14T10:38:11;10.73;;;9.73;;
32824;SDS011;51060;42.640;24.356;2023-06-14T10:40:37;11.45;;;10.15;;
32824;SDS011;51060;42.640;24.356;2023-06-14T10:43:22;11.55;;;10.45;;
32824;SDS011;51060;42.640;24.356;2023-06-14T10:48:44;11.77;;;10.68;;
32824;SDS011;51060;42.640;24.356;2023-06-14T10:51:16;11.02;;;9.90;;
32824;SDS011;51060;42.640;24.356;2023-06-14T10:53:46;11.07;;;9.98;;
32824;SDS011;51060;42.640;24.356;2023-06-14T10:56:29;11.00;;;9.90;;
32824;SDS011;51060;42.640;24.356;2023-06-14T10:58:58;10.60;;;9.50;;
32824;SDS011;51060;42.640;24.356;2023-06-14T11:01:58;10.80;;;9.80;;
32824;SDS011;51060;42.640;24.356;2023-06-14T11:04:51;10.93;;;9.70;;
32824;SDS011;51060;42.640;24.356;2023-06-14T11:12:47;10.50;;;9.52;;
32824;SDS011;51060;42.640;24.356;2023-06-14T11:15:14;9.25;;;8.30;;
32824;SDS011;51060;42.640;24.356;2023-06-14T11:17:48;10.63;;;8.63;;
32824;SDS011;51060;42.640;24.356;2023-06-14T11:20:16;10.30;;;9.40;;
32824;SDS011;51060;42.640;24.356;2023-06-14T11:22:42;10.63;;;9.60;;
32824;SDS011;51060;42.640;24.356;2023-06-14T11:25:09;10.20;;;9.30;;
32824;SDS011;51060;42.640;24.356;2023-06-14T11:27:35;9.77;;;8.88;;
32824;SDS011;51060;42.640;24.356;2023-06-14T11:30:01;9.95;;;8.90;;
32824;SDS011;51060;42.640;24.356;2023-06-14T11:32:27;9.25;;;8.45;;
32824;SDS011;51060;42.640;24.356;2023-06-14T11:34:52;10.40;;;8.50;;
32824;SDS011;51060;42.640;24.356;2023-06-14T11:37:18;9.07;;;8.20;;
32824;SDS011;51060;42.640;24.356;2023-06-14T11:39:44;8.40;;;7.60;;
32824;SDS011;51060;42.640;24.356;2023-06-14T11:42:14;8.35;;;7.63;;
32824;SDS011;51060;42.640;24.356;2023-06-14T11:44:40;8.65;;;7.32;;
32824;SDS011;51060;42.640;24.356;2023-06-14T11:47:06;8.35;;;7.55;;
32824;SDS011;51060;42.640;24.356;2023-06-14T11:49:35;8.10;;;7.40;;
32824;SDS011;51060;42.640;24.356;2023-06-14T11:52:04;7.35;;;6.65;;
32824;SDS011;51060;42.640;24.356;2023-06-14T11:54:31;8.45;;;7.07;;
32824;SDS011;51060;42.640;24.356;2023-06-14T11:56:57;7.93;;;7.20;;
32824;SDS011;51060;42.640;24.356;2023-06-14T11:59:23;8.20;;;7.50;;
32824;SDS011;51060;42.640;24.356;2023-06-14T12:01:49;7.10;;;6.50;;
32824;SDS011;51060;42.640;24.356;2023-06-14T12:04:23;9.15;;;8.35;;
32824;SDS011;51060;42.640;24.356;2023-06-14T12:06:50;7.85;;;7.13;;
32824;SDS011;51060;42.640;24.356;2023-06-14T12:09:18;6.95;;;6.35;;
32824;SDS011;51060;42.640;24.356;2023-06-14T12:11:44;6.78;;;6.18;;
32824;SDS011;51060;42.640;24.356;2023-06-14T12:14:10;7.50;;;6.70;;
32824;SDS011;51060;42.640;24.356;2023-06-14T12:16:39;7.72;;;6.93;;
32824;SDS011;51060;42.640;24.356;2023-06-14T12:19:16;7.78;;;7.18;;
32824;SDS011;51060;42.640;24.356;2023-06-14T12:21:42;7.35;;;6.75;;
32824;SDS011;51060;42.640;24.356;2023-06-14T12:24:09;6.93;;;6.38;;
32824;SDS011;51060;42.640;24.356;2023-06-14T12:26:40;7.25;;;6.65;;
32824;SDS011;51060;42.640;24.356;2023-06-14T12:29:07;6.90;;;6.30;;
32824;SDS011;51060;42.640;24.356;2023-06-14T12:31:33;7.25;;;6.65;;
32824;SDS011;51060;42.640;24.356;2023-06-14T12:33:59;8.07;;;7.13;;
32824;SDS011;51060;42.640;24.356;2023-06-14T12:36:24;7.20;;;6.60;;
32824;SDS011;51060;42.640;24.356;2023-06-14T12:38:51;6.55;;;5.95;;
32824;SDS011;51060;42.640;24.356;2023-06-14T12:41:21;7.15;;;6.53;;
32824;SDS011;51060;42.640;24.356;2023-06-14T12:43:47;6.97;;;6.38;;
32824;SDS011;51060;42.640;24.356;2023-06-14T12:46:13;7.00;;;6.35;;
32824;SDS011;51060;42.640;24.356;2023-06-14T12:48:39;7.85;;;6.55;;
32824;SDS011;51060;42.640;24.356;2023-06-14T12:51:05;7.63;;;6.88;;
32824;SDS011;51060;42.640;24.356;2023-06-14T12:53:30;7.60;;;6.95;;
32824;SDS011;51060;42.640;24.356;2023-06-14T12:55:56;8.43;;;7.63;;
32824;SDS011;51060;42.640;24.356;2023-06-14T12:58:22;8.13;;;7.32;;
32824;SDS011;51060;42.640;24.356;2023-06-14T13:00:48;7.85;;;7.15;;
32824;SDS011;51060;42.640;24.356;2023-06-14T13:03:14;7.95;;;7.25;;
32824;SDS011;51060;42.640;24.356;2023-06-14T13:05:40;7.47;;;6.78;;
32824;SDS011;51060;42.640;24.356;2023-06-14T13:08:07;8.45;;;7.75;;
32824;SDS011;51060;42.640;24.356;2023-06-14T13:10:34;7.95;;;7.25;;
32824;SDS011;51060;42.640;24.356;2023-06-14T13:12:59;8.57;;;7.63;;
32824;SDS011;51060;42.640;24.356;2023-06-14T13:15:25;12.10;;;7.93;;
32824;SDS011;51060;42.640;24.356;2023-06-14T13:17:52;8.77;;;7.45;;
32824;SDS011;51060;42.640;24.356;2023-06-14T13:20:18;8.30;;;7.47;;
32824;SDS011;51060;42.640;24.356;2023-06-14T13:22:43;8.60;;;7.80;;
32824;SDS011;51060;42.640;24.356;2023-06-14T13:25:09;8.25;;;7.65;;
32824;SDS011;51060;42.640;24.356;2023-06-14T13:27:35;8.02;;;7.35;;
32824;SDS011;51060;42.640;24.356;2023-06-14T13:30:00;8.20;;;7.25;;
32824;SDS011;51060;42.640;24.356;2023-06-14T13:32:27;8.10;;;7.40;;
32824;SDS011;51060;42.640;24.356;2023-06-14T13:34:54;8.43;;;7.63;;
32824;SDS011;51060;42.640;24.356;2023-06-14T13:37:20;8.43;;;7.72;;
32824;SDS011;51060;42.640;24.356;2023-06-14T13:39:45;8.20;;;7.40;;
32824;SDS011;51060;42.640;24.356;2023-06-14T13:42:11;8.63;;;7.93;;
32824;SDS011;51060;42.640;24.356;2023-06-14T13:44:37;8.07;;;7.38;;
32824;SDS011;51060;42.640;24.356;2023-06-14T13:47:02;8.18;;;7.43;;
32824;SDS011;51060;42.640;24.356;2023-06-14T13:49:28;7.38;;;6.78;;
32824;SDS011;51060;42.640;24.356;2023-06-14T13:51:54;8.27;;;7.57;;
32824;SDS011;51060;42.640;24.356;2023-06-14T13:54:20;7.90;;;6.97;;
32824;SDS011;51060;42.640;24.356;2023-06-14T13:56:46;7.88;;;7.18;;
32824;SDS011;51060;42.640;24.356;2023-06-14T13:59:12;7.80;;;7.15;;
32824;SDS011;51060;42.640;24.356;2023-06-14T14:01:38;9.15;;;8.35;;
32824;SDS011;51060;42.640;24.356;2023-06-14T14:04:04;7.93;;;7.18;;
32824;SDS011;51060;42.640;24.356;2023-06-14T14:06:30;8.95;;;8.15;;
32824;SDS011;51060;42.640;24.356;2023-06-14T14:08:56;10.32;;;9.43;;
32824;SDS011;51060;42.640;24.356;2023-06-14T14:11:22;9.68;;;8.77;;
32824;SDS011;51060;42.640;24.356;2023-06-14T14:13:47;8.85;;;8.05;;
32824;SDS011;51060;42.640;24.356;2023-06-14T14:16:13;10.32;;;8.95;;
32824;SDS011;51060;42.640;24.356;2023-06-14T14:18:39;8.55;;;7.68;;
32824;SDS011;51060;42.640;24.356;2023-06-14T14:21:04;8.25;;;7.55;;
32824;SDS011;51060;42.640;24.356;2023-06-14T14:23:30;9.25;;;8.43;;
32824;SDS011;51060;42.640;24.356;2023-06-14T14:25:56;8.55;;;7.78;;
32824;SDS011;51060;42.640;24.356;2023-06-14T14:28:22;9.35;;;8.55;;